Time;durP1;ratioP1;P1;durP2;ratioP2;P2;SDS_P1;SDS_P2;PMS_P1;PMS_P2;Temp;Humidity;BMP_temperature;BMP_pressure;BME280_temperature;BME280_humidity;BME280_pressure;Samples;Min_cycle;Max_cycle;Signal;HPM_P1;HPM_P2
2022/02/18 00:00:07;;;;;;;1087.45;999.90;;;;;;;7.56;49.74;100040.63;694202;28;23479;-69
2022/02/18 00:00:38;;;;;;;1089.82;999.90;;;;;;;7.54;49.76;100046.16;689728;28;137513;-69
2022/02/18 00:01:01;;;;;;;1087.20;999.90;;;;;;;7.57;49.47;100047.69;694540;28;22353;-69
2022/02/18 00:01:32;;;;;;;1086.57;999.90;;;;;;;7.54;49.54;100050.72;689457;28;60242;-69
2022/02/18 00:01:58;;;;;;;1083.45;999.90;;;;;;;7.52;49.79;100067.00;689618;28;59037;-70
2022/02/18 00:02:19;;;;;;;1082.38;999.90;;;;;;;7.53;49.76;100063.28;689476;28;69352;-69
2022/02/18 00:02:40;;;;;;;1085.70;999.90;;;;;;;7.54;49.85;100048.03;691366;28;21521;-69
2022/02/18 00:03:01;;;;;;;1086.57;999.90;;;;;;;7.54;49.86;100059.59;689678;28;22211;-69
2022/02/18 00:03:23;;;;;;;1086.80;999.90;;;;;;;7.55;49.63;100055.91;688070;28;23971;-69
2022/02/18 00:03:45;;;;;;;1085.63;999.90;;;;;;;7.53;49.52;100062.47;686383;28;69541;-69
2022/02/18 00:04:06;;;;;;;1086.03;999.90;;;;;;;7.52;49.75;100064.31;685118;28;23490;-69
2022/02/18 00:04:27;;;;;;;1090.50;999.90;;;;;;;7.57;49.94;100053.88;685069;28;47785;-69
2022/02/18 00:04:49;;;;;;;1087.93;999.90;;;;;;;7.57;49.53;100059.25;686319;28;4477;-68
2022/02/18 00:05:10;;;;;;;1088.22;999.90;;;;;;;7.58;49.53;100043.97;684930;28;45261;-69
2022/02/18 00:05:31;;;;;;;1086.07;999.90;;;;;;;7.56;49.48;100054.88;688298;28;22320;-69
2022/02/18 00:05:53;;;;;;;1090.20;999.90;;;;;;;7.56;49.56;100054.88;688161;28;22342;-68
2022/02/18 00:06:16;;;;;;;1089.13;999.90;;;;;;;7.56;49.30;100057.56;690841;28;23484;-69
2022/02/18 00:06:38;;;;;;;1085.97;999.90;;;;;;;7.55;49.54;100053.22;687782;28;88878;-69
2022/02/18 00:07:00;;;;;;;1081.28;999.90;;;;;;;7.53;49.59;100051.72;690311;28;46337;-69
2022/02/18 00:07:22;;;;;;;1083.95;999.90;;;;;;;7.52;49.26;100061.63;691719;28;973;-69
2022/02/18 00:07:43;;;;;;;1087.72;999.90;;;;;;;7.52;49.33;100058.09;688391;28;21666;-69
2022/02/18 00:08:04;;;;;;;1086.20;999.90;;;;;;;7.54;49.58;100077.59;687819;28;23474;-69
2022/02/18 00:08:26;;;;;;;1086.45;999.90;;;;;;;7.58;49.33;100074.34;688621;28;9487;-69
2022/02/18 00:08:48;;;;;;;1089.32;999.90;;;;;;;7.60;49.09;100044.63;685340;28;22414;-68
2022/02/18 00:09:09;;;;;;;1091.40;999.90;;;;;;;7.64;48.99;100062.06;684629;28;44059;-69
2022/02/18 00:09:30;;;;;;;1086.38;999.90;;;;;;;7.64;49.00;100055.88;685325;28;24383;-69
2022/02/18 00:09:51;;;;;;;1081.38;999.90;;;;;;;7.61;49.09;100067.78;688250;28;22378;-68
2022/02/18 00:10:13;;;;;;;1084.65;999.90;;;;;;;7.60;49.02;100057.22;688016;28;23537;-71
2022/02/18 00:10:34;;;;;;;1091.55;999.90;;;;;;;7.57;48.88;100061.94;687994;28;45234;-68
2022/02/18 00:10:55;;;;;;;1089.90;999.90;;;;;;;7.56;48.98;100065.63;690114;28;46318;-69
2022/02/18 00:11:17;;;;;;;1088.00;999.90;;;;;;;7.57;49.16;100080.75;690151;28;23489;-69
2022/02/18 00:11:38;;;;;;;1092.55;999.90;;;;;;;7.56;49.09;100071.00;690242;28;45560;-68
2022/02/18 00:11:59;;;;;;;1093.18;999.90;;;;;;;7.57;49.10;100070.00;689853;28;22387;-69
2022/02/18 00:12:20;;;;;;;1094.97;999.90;;;;;;;7.61;49.21;100053.53;690904;28;21566;-69
2022/02/18 00:12:48;;;;;;;1092.50;999.90;;;;;;;7.61;49.10;100051.66;686132;28;138075;-70
2022/02/18 00:13:10;;;;;;;1093.57;999.90;;;;;;;7.61;49.07;100088.47;690406;28;45267;-70
2022/02/18 00:13:31;;;;;;;1091.72;999.90;;;;;;;7.62;49.36;100074.84;690298;28;46295;-70
2022/02/18 00:13:52;;;;;;;1090.25;999.90;;;;;;;7.62;49.30;100060.56;689973;28;44137;-70
2022/02/18 00:14:15;;;;;;;1095.00;999.90;;;;;;;7.60;49.34;100066.13;689702;28;21563;-70
2022/02/18 00:14:36;;;;;;;1094.57;999.90;;;;;;;7.67;49.41;100085.91;689359;28;57171;-71
2022/02/18 00:14:59;;;;;;;1094.70;999.90;;;;;;;7.68;48.74;100062.56;690368;28;45254;-70
2022/02/18 00:15:20;;;;;;;1094.85;999.90;;;;;;;7.68;48.91;100062.56;691054;28;23461;-70
2022/02/18 00:15:41;;;;;;;1094.25;999.90;;;;;;;7.66;48.96;100069.97;690965;28;23445;-71
2022/02/18 00:16:04;;;;;;;1095.85;999.90;;;;;;;7.63;48.82;100081.06;690657;28;23479;-70
2022/02/18 00:16:25;;;;;;;1090.05;999.90;;;;;;;7.66;48.90;100054.66;688719;28;69233;-70
2022/02/18 00:16:46;;;;;;;1090.50;999.90;;;;;;;7.66;48.77;100048.47;688736;28;21529;-70
2022/02/18 00:17:07;;;;;;;1090.35;999.90;;;;;;;7.66;48.77;100075.34;688491;28;44243;-69
2022/02/18 00:17:28;;;;;;;1095.53;999.90;;;;;;;7.65;48.94;100062.91;689148;28;21525;-70
2022/02/18 00:17:51;;;;;;;1092.65;999.90;;;;;;;7.63;48.59;100087.25;689248;28;23326;-70
2022/02/18 00:18:12;;;;;;;1095.00;999.90;;;;;;;7.64;48.84;100078.19;688775;28;46539;-70
2022/02/18 00:18:34;;;;;;;1092.22;999.90;;;;;;;7.64;48.66;100123.88;689521;28;22173;-70
2022/02/18 00:18:55;;;;;;;1081.78;999.90;;;;;;;7.71;48.41;100067.59;690023;28;46306;-70
2022/02/18 00:19:18;;;;;;;1054.45;990.72;;;;;;;7.69;48.51;100057.00;691035;28;23714;-70
2022/02/18 00:19:39;;;;;;;1090.72;999.90;;;;;;;7.71;48.39;100064.88;688900;28;93163;-70
2022/02/18 00:20:01;;;;;;;1083.75;999.90;;;;;;;7.68;48.31;100066.09;690936;28;20936;-70
2022/02/18 00:20:22;;;;;;;1067.32;999.90;;;;;;;7.65;48.45;100065.59;691009;28;22463;-70
2022/02/18 00:20:44;;;;;;;1025.45;964.00;;;;;;;7.64;48.73;100083.56;691050;28;23421;-70
2022/02/18 00:21:05;;;;;;;970.95;913.42;;;;;;;7.61;48.49;100057.03;689791;28;46610;-70
2022/02/18 00:21:27;;;;;;;974.10;915.85;;;;;;;7.61;48.54;100072.34;662060;28;46388;-70
2022/02/18 00:21:49;;;;;;;897.95;845.40;;;;;;;7.60;48.87;100067.97;690581;28;22380;-70
2022/02/18 00:22:10;;;;;;;680.20;643.13;;;;;;;7.60;48.90;100076.84;689271;28;67492;-70
2022/02/18 00:22:32;;;;;;;615.63;583.33;;;;;;;7.60;48.87;100065.28;689187;28;45428;-69
2022/02/18 00:22:53;;;;;;;821.20;773.13;;;;;;;7.61;48.62;100077.72;688510;28;46286;-69
2022/02/18 00:23:14;;;;;;;681.50;639.55;;;;;;;7.61;48.92;100078.53;689311;28;23458;-70
2022/02/18 00:23:35;;;;;;;396.80;373.80;;;;;;;7.62;48.73;100069.47;690684;28;23401;-70
2022/02/18 00:23:57;;;;;;;998.95;933.20;;;;;;;7.61;48.64;100083.94;690822;28;21544;-70
2022/02/18 00:24:18;;;;;;;1086.88;999.90;;;;;;;7.62;49.01;100079.38;690165;28;46312;-70
2022/02/18 00:24:39;;;;;;;1091.50;999.90;;;;;;;7.61;49.03;100088.47;691324;28;22382;-70
2022/02/18 00:25:02;;;;;;;1092.32;999.90;;;;;;;7.62;48.92;100074.84;690934;28;23212;-70
2022/02/18 00:25:24;;;;;;;1095.47;999.90;;;;;;;7.63;49.18;100078.38;689862;28;46293;-69
2022/02/18 00:25:45;;;;;;;1076.38;999.90;;;;;;;7.63;48.91;100076.50;689146;28;69421;-70
2022/02/18 00:26:06;;;;;;;1075.10;999.90;;;;;;;7.68;48.85;100087.59;690707;28;22387;-70
2022/02/18 00:26:28;;;;;;;1095.65;999.90;;;;;;;7.69;48.80;100080.38;690653;28;21680;-69
2022/02/18 00:26:49;;;;;;;1098.40;999.90;;;;;;;7.66;48.48;100094.97;690733;28;22634;-70
2022/02/18 00:27:11;;;;;;;1095.97;999.90;;;;;;;7.65;48.59;100085.25;686810;28;45418;-70
2022/02/18 00:27:35;;;;;;;1085.10;999.90;;;;;;;7.65;48.51;100079.88;685100;28;91872;-69
2022/02/18 00:27:57;;;;;;;945.25;889.00;;;;;;;7.63;48.79;100081.88;687290;28;42334;-70
2022/02/18 00:28:18;;;;;;;690.22;652.75;;;;;;;7.61;48.90;100089.28;688296;28;21629;-69
2022/02/18 00:28:40;;;;;;;483.80;459.40;;;;;;;7.64;48.84;100088.94;687640;28;46462;-69
2022/02/18 00:29:02;;;;;;;479.90;455.33;;;;;;;7.64;48.71;100093.50;685420;28;44531;-70
2022/02/18 00:29:25;;;;;;;747.75;706.08;;;;;;;7.63;48.86;100097.19;685053;28;69973;-70
2022/02/18 00:29:49;;;;;;;595.67;564.97;;;;;;;7.63;48.94;100092.63;686313;28;67326;-69
2022/02/18 00:30:10;;;;;;;561.85;533.35;;;;;;;7.67;48.79;100098.53;687247;28;46261;-70
2022/02/18 00:30:31;;;;;;;544.28;516.83;;;;;;;7.69;48.74;100100.00;684364;28;46361;-70
2022/02/18 00:30:53;;;;;;;521.28;495.23;;;;;;;7.65;48.54;100111.28;685285;28;24475;-70
2022/02/18 00:31:15;;;;;;;549.20;521.50;;;;;;;7.66;48.52;100097.66;685305;28;22055;-69
2022/02/18 00:31:36;;;;;;;565.15;536.45;;;;;;;7.63;48.66;100100.69;657341;28;42615;-70
2022/02/18 00:31:57;;;;;;;556.22;528.13;;;;;;;7.63;48.81;100089.13;686715;28;23291;-70
2022/02/18 00:32:19;;;;;;;559.28;531.00;;;;;;;7.63;48.87;100097.19;682706;28;44316;-70
2022/02/18 00:32:41;;;;;;;633.58;600.42;;;;;;;7.63;49.04;100100.69;684301;28;22389;-70
2022/02/18 00:33:02;;;;;;;786.22;741.80;;;;;;;7.67;48.65;100098.53;681141;28;67578;-70
2022/02/18 00:33:23;;;;;;;868.53;818.50;;;;;;;7.68;48.62;100098.34;682084;28;45250;-70
2022/02/18 00:33:44;;;;;;;913.45;860.42;;;;;;;7.76;48.31;100082.19;682465;28;20915;-70
2022/02/18 00:34:08;;;;;;;1050.32;984.58;;;;;;;7.73;48.33;100085.22;683977;28;46760;-70
2022/02/18 00:34:29;;;;;;;1061.55;992.25;;;;;;;7.71;48.20;100089.94;684424;28;46416;-70
2022/02/18 00:34:50;;;;;;;1091.97;999.90;;;;;;;7.69;48.50;100093.81;686303;28;22430;-69
2022/02/18 00:35:11;;;;;;;1089.57;999.90;;;;;;;7.66;48.32;100092.28;686178;28;23482;-70
2022/02/18 00:35:32;;;;;;;1089.60;999.90;;;;;;;7.65;48.63;100104.06;686489;28;21300;-70
2022/02/18 00:35:54;;;;;;;1089.43;999.90;;;;;;;7.66;48.75;100103.03;685155;28;47430;-69
2022/02/18 00:36:18;;;;;;;897.30;841.10;;;;;;;7.66;48.58;100088.78;682579;28;114925;-70
2022/02/18 00:36:39;;;;;;;1084.70;999.90;;;;;;;7.64;48.56;100096.19;687494;28;45280;-70
2022/02/18 00:37:03;;;;;;;1080.70;999.90;;;;;;;7.60;48.86;100084.94;688943;28;22195;-71
2022/02/18 00:37:26;;;;;;;974.53;917.47;;;;;;;7.61;48.70;100091.97;687910;28;113704;-70
2022/02/18 00:37:47;;;;;;;943.70;888.78;;;;;;;7.60;48.91;100094.84;685926;28;20985;-70
2022/02/18 00:38:09;;;;;;;876.78;826.08;;;;;;;7.62;48.92;100100.88;686467;28;22204;-70
2022/02/18 00:38:30;;;;;;;907.60;854.97;;;;;;;7.60;49.06;100095.66;685702;28;44307;-69
2022/02/18 00:38:52;;;;;;;982.45;925.03;;;;;;;7.62;49.05;100107.09;685915;28;44509;-70
2022/02/18 00:39:13;;;;;;;971.10;914.40;;;;;;;7.63;49.22;100102.56;686437;28;23390;-70
2022/02/18 00:39:34;;;;;;;970.25;913.67;;;;;;;7.64;48.96;100098.88;686582;28;21486;-69
2022/02/18 00:39:59;;;;;;;979.03;921.83;;;;;;;7.65;49.24;100105.91;684747;28;23461;-70
2022/02/18 00:40:21;;;;;;;1000.30;941.47;;;;;;;7.66;49.27;100111.09;682195;28;113812;-69
2022/02/18 00:40:42;;;;;;;993.90;935.72;;;;;;;7.65;49.03;100104.06;681421;28;46425;-69
2022/02/18 00:41:06;;;;;;;993.80;935.67;;;;;;;7.67;49.23;100114.66;680847;29;23472;-69
2022/02/18 00:41:27;;;;;;;1016.03;956.22;;;;;;;7.70;49.05;100111.63;679416;28;69704;-69
2022/02/18 00:41:48;;;;;;;1005.78;946.92;;;;;;;7.70;48.95;100122.38;681021;29;22360;-69
2022/02/18 00:42:12;;;;;;;1013.33;953.95;;;;;;;7.73;48.94;100095.97;678810;29;92538;-69
2022/02/18 00:42:35;;;;;;;1030.97;970.33;;;;;;;7.73;48.86;100095.97;681426;28;45947;-69
2022/02/18 00:42:57;;;;;;;1014.97;955.42;;;;;;;7.74;48.69;100103.03;683839;28;68676;-69
2022/02/18 00:43:18;;;;;;;985.92;928.40;;;;;;;7.74;48.72;100111.09;684375;28;46411;-69
2022/02/18 00:43:39;;;;;;;989.75;931.97;;;;;;;7.74;48.52;100104.88;686129;28;22172;-69
2022/02/18 00:44:01;;;;;;;982.60;925.25;;;;;;;7.71;48.69;100106.06;686553;28;22389;-69
2022/02/18 00:44:23;;;;;;;962.97;906.90;;;;;;;7.70;48.89;100104.38;683518;28;67474;-70
2022/02/18 00:44:44;;;;;;;940.95;886.25;;;;;;;7.68;48.65;100106.41;684906;28;21496;-69
2022/02/18 00:45:06;;;;;;;919.80;866.35;;;;;;;7.69;48.87;100096.50;685354;28;23444;-70
2022/02/18 00:45:29;;;;;;;893.05;841.30;;;;;;;7.68;49.14;100117.16;684822;28;46318;-70
2022/02/18 00:45:50;;;;;;;964.50;908.00;;;;;;;7.69;49.25;100105.38;681552;28;70292;-69
2022/02/18 00:46:11;;;;;;;975.22;918.08;;;;;;;7.71;49.20;100106.06;683018;28;23574;-69
2022/02/18 00:46:33;;;;;;;967.80;911.35;;;;;;;7.72;48.96;100099.66;684347;28;22415;-69
2022/02/18 00:46:54;;;;;;;946.97;891.92;;;;;;;7.71;48.76;100111.44;684500;28;44390;-69
2022/02/18 00:47:15;;;;;;;985.63;928.05;;;;;;;7.66;48.70;100113.78;682454;28;21543;-69
2022/02/18 00:47:37;;;;;;;1008.33;949.22;;;;;;;7.68;48.91;100117.16;682226;28;45239;-70
2022/02/18 00:47:59;;;;;;;1001.05;942.45;;;;;;;7.66;48.61;100097.66;683050;28;22393;-69
2022/02/18 00:48:20;;;;;;;973.75;916.83;;;;;;;7.71;48.70;100124.03;681408;28;44363;-70
2022/02/18 00:48:43;;;;;;;909.38;856.60;;;;;;;7.72;48.65;100117.66;682458;28;21544;-69
2022/02/18 00:49:06;;;;;;;948.00;892.75;;;;;;;7.69;48.89;100112.63;679924;28;137989;-70
2022/02/18 00:49:29;;;;;;;961.35;905.38;;;;;;;7.68;48.90;100116.31;682544;28;22405;-69
2022/02/18 00:49:50;;;;;;;957.47;901.72;;;;;;;7.65;48.89;100119.34;682865;28;44383;-69
2022/02/18 00:50:12;;;;;;;980.78;923.53;;;;;;;7.62;48.94;100122.38;685674;28;46270;-69
2022/02/18 00:50:33;;;;;;;979.70;922.55;;;;;;;7.62;49.23;100125.06;684599;28;23446;-69
2022/02/18 00:50:55;;;;;;;952.05;896.60;;;;;;;7.63;49.38;100124.88;685358;28;23541;-70
2022/02/18 00:51:16;;;;;;;936.28;881.92;;;;;;;7.62;49.19;100122.38;682735;28;45321;-69
2022/02/18 00:51:40;;;;;;;933.58;879.38;;;;;;;7.63;49.30;100116.00;685019;28;69139;-69
2022/02/18 00:52:03;;;;;;;897.55;845.67;;;;;;;7.64;49.27;100105.06;685607;28;32888;-70
2022/02/18 00:52:25;;;;;;;918.88;865.58;;;;;;;7.64;49.42;100112.31;684598;28;2056;-71
2022/02/18 00:52:48;;;;;;;913.20;860.25;;;;;;;7.64;49.56;100105.06;682782;28;91416;-70
2022/02/18 00:53:09;;;;;;;888.75;837.35;;;;;;;7.65;49.76;100108.59;683622;28;21934;-69
2022/02/18 00:53:30;;;;;;;900.20;848.10;;;;;;;7.66;49.59;100118.34;685137;28;22160;-69
2022/02/18 00:53:52;;;;;;;944.08;889.25;;;;;;;7.65;49.75;100120.19;684407;28;47362;-70
2022/02/18 00:54:13;;;;;;;941.75;887.00;;;;;;;7.66;49.44;100123.72;682118;28;47480;-72
2022/02/18 00:54:35;;;;;;;936.58;882.17;;;;;;;7.65;49.89;100117.50;682690;28;22383;-69
2022/02/18 00:54:56;;;;;;;919.13;865.83;;;;;;;7.66;49.89;100123.72;683519;28;10376;-69
2022/02/18 00:55:17;;;;;;;927.15;873.28;;;;;;;7.65;49.80;100128.25;685175;28;22522;-70
2022/02/18 00:55:39;;;;;;;909.33;856.67;;;;;;;7.66;49.37;100118.34;686009;28;22481;-70
2022/02/18 00:56:00;;;;;;;926.30;872.50;;;;;;;7.67;49.59;100123.53;683564;28;46293;-70
2022/02/18 00:56:22;;;;;;;964.97;908.72;;;;;;;7.65;49.78;100130.09;686928;28;4110;-70
2022/02/18 00:56:44;;;;;;;956.63;900.92;;;;;;;7.68;49.68;100119.84;684470;28;22550;-69
2022/02/18 00:57:05;;;;;;;941.90;887.17;;;;;;;7.69;49.57;100123.38;684433;28;47352;-69
2022/02/18 00:57:27;;;;;;;959.25;903.45;;;;;;;7.66;49.30;100126.41;686179;28;1177;-70
2022/02/18 00:57:50;;;;;;;968.97;912.50;;;;;;;7.66;49.60;100112.97;683541;28;90820;-70
2022/02/18 00:58:11;;;;;;;955.15;899.55;;;;;;;7.65;49.38;100112.13;688227;28;22464;-69
2022/02/18 00:58:32;;;;;;;943.63;888.78;;;;;;;7.65;49.55;100125.56;685783;28;23552;-69
2022/02/18 00:58:54;;;;;;;967.92;911.53;;;;;;;7.67;49.67;100120.84;687862;28;22491;-70
2022/02/18 00:59:18;;;;;;;969.83;913.35;;;;;;;7.68;49.55;100130.59;683342;28;115139;-72
2022/02/18 00:59:39;;;;;;;962.85;906.72;;;;;;;7.70;49.78;100136.63;683474;28;23948;-70
2022/02/18 01:00:00;;;;;;;940.03;885.38;;;;;;;7.73;49.46;100138.16;683983;28;22337;-70
2022/02/18 01:00:23;;;;;;;938.53;883.97;;;;;;;7.75;49.36;100138.81;683491;28;69455;-70
2022/02/18 01:00:45;;;;;;;953.08;897.70;;;;;;;7.72;49.29;100149.91;685530;28;45005;-70
2022/02/18 01:01:08;;;;;;;944.20;889.30;;;;;;;7.75;49.17;100136.13;684322;28;22235;-70
2022/02/18 01:01:29;;;;;;;941.53;886.88;;;;;;;7.69;49.32;100129.56;686772;28;54953;-70
2022/02/18 01:01:53;;;;;;;966.45;910.17;;;;;;;7.65;49.36;100127.41;685996;28;69366;-70
2022/02/18 01:02:14;;;;;;;962.25;906.30;;;;;;;7.61;49.65;100118.88;682250;28;44442;-70
2022/02/18 01:02:36;;;;;;;962.10;906.10;;;;;;;7.60;50.01;100133.28;680565;28;23449;-70
2022/02/18 01:02:57;;;;;;;964.90;908.72;;;;;;;7.59;50.00;100128.97;680175;28;44376;-71
2022/02/18 01:03:19;;;;;;;976.38;919.45;;;;;;;7.57;49.81;100121.06;684575;28;22219;-70
2022/02/18 01:03:41;;;;;;;961.58;905.58;;;;;;;7.57;50.04;100136.38;683540;28;69449;-70
2022/02/18 01:04:03;;;;;;;940.50;885.80;;;;;;;7.55;49.92;100139.22;683742;28;22390;-70
2022/02/18 01:04:24;;;;;;;930.03;876.05;;;;;;;7.54;50.16;100142.06;685996;28;46229;-70
2022/02/18 01:04:46;;;;;;;933.47;879.22;;;;;;;7.52;50.16;100139.56;688689;28;23500;-70
2022/02/18 01:05:08;;;;;;;934.25;880.03;;;;;;;7.54;50.05;100140.22;690164;28;45240;-70
2022/02/18 01:05:29;;;;;;;952.03;896.63;;;;;;;7.55;50.24;100152.66;690206;28;67610;-70
2022/02/18 01:05:50;;;;;;;970.15;913.50;;;;;;;7.59;49.96;100150.44;687948;28;44368;-70
2022/02/18 01:06:13;;;;;;;964.05;907.78;;;;;;;7.64;49.81;100147.25;689692;28;22264;-70
2022/02/18 01:06:35;;;;;;;934.78;880.42;;;;;;;7.62;49.67;100135.81;687506;28;69409;-70
2022/02/18 01:06:56;;;;;;;964.03;907.83;;;;;;;7.58;49.79;100143.41;690658;28;22383;-70
2022/02/18 01:07:18;;;;;;;990.33;932.40;;;;;;;7.56;49.92;100130.13;687272;28;23465;-70
2022/02/18 01:07:40;;;;;;;983.88;926.40;;;;;;;7.55;49.92;100139.22;687860;28;46327;-71
2022/02/18 01:08:01;;;;;;;979.92;922.70;;;;;;;7.54;50.10;100145.59;689045;28;69379;-70
2022/02/18 01:08:23;;;;;;;997.60;939.13;;;;;;;7.53;50.00;100141.22;690902;28;1467;-69
2022/02/18 01:08:45;;;;;;;994.03;935.85;;;;;;;7.53;50.26;100138.53;689464;28;45340;-70
2022/02/18 01:09:08;;;;;;;978.28;921.17;;;;;;;7.53;50.40;100145.75;690155;28;23864;-70
2022/02/18 01:09:29;;;;;;;982.97;925.53;;;;;;;7.53;50.56;100143.06;688337;28;70163;-70
2022/02/18 01:09:52;;;;;;;983.92;926.40;;;;;;;7.51;50.16;100143.25;687730;28;21483;-70
2022/02/18 01:10:13;;;;;;;976.60;919.58;;;;;;;7.53;50.41;100153.81;686311;28;67395;-70
2022/02/18 01:10:36;;;;;;;972.38;915.63;;;;;;;7.55;50.31;100155.34;685022;28;21528;-70
2022/02/18 01:11:00;;;;;;;989.22;931.38;;;;;;;7.53;50.05;100146.59;678562;28;159348;-71
2022/02/18 01:11:22;;;;;;;972.25;915.60;;;;;;;7.52;50.02;100154.81;678428;29;24642;-70
2022/02/18 01:11:43;;;;;;;964.15;907.97;;;;;;;7.56;50.30;100145.41;682288;28;22337;-70
2022/02/18 01:12:05;;;;;;;956.53;900.92;;;;;;;7.56;50.40;100159.69;683637;28;22385;-70
2022/02/18 01:12:27;;;;;;;960.85;904.92;;;;;;;7.58;50.34;100151.44;681921;28;67467;-70
2022/02/18 01:12:48;;;;;;;951.50;896.10;;;;;;;7.57;50.18;100160.53;683550;28;24606;-70
2022/02/18 01:13:09;;;;;;;947.25;892.22;;;;;;;7.56;49.95;100150.78;684194;28;23465;-70
2022/02/18 01:13:31;;;;;;;946.42;891.42;;;;;;;7.54;50.19;100156.34;685170;28;22394;-70
2022/02/18 01:13:52;;;;;;;963.42;907.35;;;;;;;7.55;50.41;100160.72;683685;28;46424;-70
2022/02/18 01:14:16;;;;;;;958.80;903.00;;;;;;;7.57;50.51;100160.53;683428;28;93241;-70
2022/02/18 01:14:37;;;;;;;952.38;897.00;;;;;;;7.56;50.47;100154.31;685409;28;21536;-70
2022/02/18 01:14:59;;;;;;;978.20;921.15;;;;;;;7.58;50.15;100159.50;685250;28;22381;-70
2022/02/18 01:15:20;;;;;;;983.50;926.08;;;;;;;7.57;50.50;100163.22;685643;28;28906;-70
2022/02/18 01:15:41;;;;;;;982.25;924.95;;;;;;;7.59;50.33;100166.56;688088;28;22485;-70
2022/02/18 01:16:03;;;;;;;970.13;913.58;;;;;;;7.60;50.24;100167.41;686936;28;22445;-70
2022/02/18 01:16:27;;;;;;;975.53;918.70;;;;;;;7.62;50.30;100168.06;686865;28;46299;-70
2022/02/18 01:16:48;;;;;;;979.78;922.70;;;;;;;7.62;50.29;100163.56;688180;28;92271;-70
2022/02/18 01:17:09;;;;;;;968.45;912.10;;;;;;;7.60;50.17;100152.09;691264;28;6134;-70
2022/02/18 01:17:31;;;;;;;945.88;890.95;;;;;;;7.60;50.01;100160.16;688990;28;45402;-70
2022/02/18 01:17:53;;;;;;;947.67;892.65;;;;;;;7.60;50.04;100152.09;685565;28;22271;-70
2022/02/18 01:18:16;;;;;;;920.60;867.17;;;;;;;7.59;50.41;100166.56;685431;28;92185;-70
2022/02/18 01:18:38;;;;;;;895.10;843.30;;;;;;;7.61;50.00;100166.41;687079;28;46213;-69
2022/02/18 01:18:59;;;;;;;897.78;845.83;;;;;;;7.62;49.88;100158.16;687967;28;22390;-70
2022/02/18 01:19:21;;;;;;;910.67;857.85;;;;;;;7.64;49.94;100168.75;684650;28;22261;-70
2022/02/18 01:19:42;;;;;;;898.53;846.58;;;;;;;7.60;49.90;100160.16;683049;28;44429;-70
2022/02/18 01:20:05;;;;;;;915.55;862.47;;;;;;;7.58;49.94;100165.72;685215;28;22220;-70
2022/02/18 01:20:26;;;;;;;937.60;883.13;;;;;;;7.57;49.84;100163.22;681434;28;69188;-70
2022/02/18 01:20:48;;;;;;;944.58;889.75;;;;;;;7.57;50.04;100158.69;682734;28;22380;-69
2022/02/18 01:21:11;;;;;;;933.47;879.35;;;;;;;7.58;50.11;100157.66;682025;28;69337;-70
2022/02/18 01:21:32;;;;;;;952.58;897.17;;;;;;;7.58;49.92;100159.50;684281;28;46158;-70
2022/02/18 01:21:53;;;;;;;948.75;893.60;;;;;;;7.54;49.95;100160.88;687916;28;22411;-70
2022/02/18 01:22:15;;;;;;;944.03;889.22;;;;;;;7.53;50.39;100162.72;689112;28;19947;-71
2022/02/18 01:22:37;;;;;;;937.65;883.22;;;;;;;7.53;50.14;100169.94;690568;28;46258;-70
2022/02/18 01:22:59;;;;;;;956.72;901.03;;;;;;;7.50;50.20;100164.91;691338;28;46278;-70
2022/02/18 01:23:20;;;;;;;953.28;897.88;;;;;;;7.50;50.47;100165.75;689455;28;44004;-70
2022/02/18 01:23:42;;;;;;;949.47;894.20;;;;;;;7.53;50.17;100169.94;690518;28;22347;-70
2022/02/18 01:24:05;;;;;;;952.70;897.25;;;;;;;7.54;50.36;100175.16;686453;28;45304;-70
2022/02/18 01:24:26;;;;;;;961.58;905.60;;;;;;;7.52;50.38;100171.81;683132;28;70295;-70
2022/02/18 01:24:49;;;;;;;858.83;809.50;;;;;;;7.52;50.27;100161.06;683721;28;69398;-70
2022/02/18 01:25:13;;;;;;;837.50;789.75;;;;;;;7.52;50.12;100166.44;682157;28;69903;-70
2022/02/18 01:25:34;;;;;;;937.55;883.08;;;;;;;7.50;50.47;100165.75;681535;28;46985;-70
2022/02/18 01:25:58;;;;;;;947.72;892.53;;;;;;;7.50;50.24;100167.59;681594;28;92251;-70
2022/02/18 01:26:20;;;;;;;939.42;884.72;;;;;;;7.52;50.31;100168.25;685970;28;22409;-70
2022/02/18 01:26:41;;;;;;;943.33;888.42;;;;;;;7.53;49.91;100165.41;687115;28;45324;-70
2022/02/18 01:27:03;;;;;;;945.97;890.97;;;;;;;7.50;49.98;100162.22;685468;28;22369;-70
2022/02/18 01:27:26;;;;;;;935.83;881.50;;;;;;;7.50;50.34;100160.38;682833;28;92378;-70
2022/02/18 01:27:48;;;;;;;932.63;878.47;;;;;;;7.50;50.23;100165.75;685056;28;22413;-70
2022/02/18 01:28:09;;;;;;;948.20;893.03;;;;;;;7.49;50.28;100161.41;684841;28;45233;-70
2022/02/18 01:28:30;;;;;;;942.33;887.53;;;;;;;7.51;50.17;100163.91;685135;28;22419;-70
2022/02/18 01:28:51;;;;;;;928.42;874.55;;;;;;;7.51;50.28;100175.50;685871;28;23451;-70
2022/02/18 01:29:12;;;;;;;924.78;871.10;;;;;;;7.54;50.41;100160.88;688881;28;993;-70
2022/02/18 01:29:39;;;;;;;940.30;885.63;;;;;;;7.53;50.43;100172.63;690817;28;23447;-70
2022/02/18 01:30:03;;;;;;;929.22;875.28;;;;;;;7.56;50.29;100170.44;687052;28;160827;-70
2022/02/18 01:30:26;;;;;;;958.92;902.90;;;;;;;7.56;50.12;100174.97;691548;28;36369;-71
2022/02/18 01:30:48;;;;;;;954.00;898.45;;;;;;;7.57;50.16;100174.81;692675;28;10902;-70
2022/02/18 01:31:11;;;;;;;939.58;885.03;;;;;;;7.57;50.26;100177.50;691165;28;44384;-70
2022/02/18 01:31:44;;;;;;;947.90;892.53;;;;;;;7.56;50.56;100181.19;663846;28;79759;-70
2022/02/18 01:32:06;;;;;;;947.42;892.13;;;;;;;7.54;50.17;100177.84;686955;28;45279;-70
2022/02/18 01:32:29;;;;;;;931.85;877.70;;;;;;;7.54;50.23;100174.31;686561;28;70293;-70
2022/02/18 01:32:50;;;;;;;949.22;894.03;;;;;;;7.53;50.35;100178.84;685354;28;46575;-70
2022/02/18 01:33:11;;;;;;;947.40;892.30;;;;;;;7.53;50.27;100167.25;683550;28;23428;-69
2022/02/18 01:33:32;;;;;;;937.47;882.97;;;;;;;7.54;50.11;100183.22;682920;28;22399;-70
2022/02/18 01:33:55;;;;;;;931.83;877.67;;;;;;;7.57;50.00;100174.81;683823;28;21525;-69
2022/02/18 01:34:17;;;;;;;945.15;890.15;;;;;;;7.56;49.94;100174.97;682481;28;69414;-70
2022/02/18 01:34:38;;;;;;;932.90;878.70;;;;;;;7.53;49.89;100169.94;683924;28;22506;-69
2022/02/18 01:34:59;;;;;;;934.58;880.20;;;;;;;7.52;49.96;100154.81;683634;28;46139;-70
2022/02/18 01:35:22;;;;;;;955.90;900.25;;;;;;;7.51;50.17;100166.59;683901;28;23449;-70
2022/02/18 01:35:43;;;;;;;948.53;893.35;;;;;;;7.51;50.30;100177.34;685383;28;69401;-70
2022/02/18 01:36:04;;;;;;;937.28;882.78;;;;;;;7.50;50.01;100175.66;686226;28;21499;-70
2022/02/18 01:36:27;;;;;;;948.35;893.15;;;;;;;7.48;49.98;100180.38;685731;28;21532;-70
2022/02/18 01:36:49;;;;;;;944.58;889.53;;;;;;;7.50;50.10;100172.97;684244;28;92269;-70
2022/02/18 01:37:10;;;;;;;930.72;876.63;;;;;;;7.52;50.00;100181.69;687971;28;22371;-70
2022/02/18 01:37:31;;;;;;;931.40;877.38;;;;;;;7.51;50.23;100182.72;687969;28;23467;-69
2022/02/18 01:37:55;;;;;;;938.53;884.03;;;;;;;7.50;50.02;100176.50;686630;28;22402;-70
2022/02/18 01:38:16;;;;;;;925.50;871.80;;;;;;;7.51;50.25;100180.03;683222;28;69320;-70
2022/02/18 01:38:38;;;;;;;917.55;864.25;;;;;;;7.51;50.05;100172.81;686754;28;41922;-70
2022/02/18 01:38:59;;;;;;;921.17;867.67;;;;;;;7.50;50.11;100181.03;684793;28;23486;-70
2022/02/18 01:39:22;;;;;;;899.88;847.78;;;;;;;7.52;50.10;100170.94;684363;28;45209;-70